Search for airport 
image banner adimage banner adimage banner ad
image banner ad

KSLI - Los Alamitos Aaf

Located in Los Alamitos, United States

ICAO - SLI, IATA -

Data provided by Airmate  

General information

Coordinates: N33°47'24" W118°3'5"
Elevation is 35 feet MSL.
Magnetic variation is 12° East
View others Airports in California

Operational data

Special qualification required
Current time UTC:
Current local time:
Weather
METAR: KSLI 211258Z AUTO 00000KT 10SM OVC013 17/15 A2996 RMK AO2 SLP148 T01700153
TAF: TAF KSLI 210500Z 2105/2211 VRB06KT 9999 SCT010 QNH2990INS BECMG 2110/2111 VRB06KT 9000 BR OVC010 QNH2991INS BECMG 2116/2117 VRB06KT 9999 NSW SCT010 QNH2990INS BECMG 2209/2210 VRB06KT 9000 BR BKN010 QNH2991INS TX20/2105Z TN15/2114Z
View NOTAMs / SUP AIP / TFR affecting this airport [VIEW]
Communications frequencies: [VIEW]

Runways:

RWY identifierQFULength (ft)Width (ft)SurfaceLDA (ft)
04R7999200OTHER
22L7999200OTHER
04L5901150OTHER
22R5901150OTHER

Airport contact information

Address: Los Alamitos United States

Satellite view of KSLI